Time;durP1;ratioP1;P1;durP2;ratioP2;P2;SDS_P1;SDS_P2;PMS_P1;PMS_P2;Temp;Humidity;BMP_temperature;BMP_pressure;BME280_temperature;BME280_humidity;BME280_pressure;Samples;Min_cycle;Max_cycle;Signal;HPM_P1;HPM_P2
2022/07/01 00:02:11;;;;;;;21.50;16.10;;;;;;;;;;5015312;28;20215;-66
2022/07/01 00:04:37;;;;;;;23.53;17.00;;;;;;;;;;5015510;28;20174;-66
2022/07/01 00:07:03;;;;;;;22.00;17.13;;;;;;;;;;5033500;28;20186;-66
2022/07/01 00:09:29;;;;;;;26.00;19.20;;;;;;;;;;5033226;28;20555;-66
2022/07/01 00:11:55;;;;;;;25.27;18.20;;;;;;;;;;5033147;28;20209;-66
2022/07/01 00:14:22;;;;;;;27.63;18.97;;;;;;;;;;5033271;28;20203;-67
2022/07/01 00:16:48;;;;;;;26.67;18.27;;;;;;;;;;5032948;28;20241;-66
2022/07/01 00:19:14;;;;;;;29.47;20.50;;;;;;;;;;5032939;28;20175;-66
2022/07/01 00:21:40;;;;;;;28.67;20.57;;;;;;;;;;5032858;28;20197;-66
2022/07/01 00:24:06;;;;;;;27.77;20.17;;;;;;;;;;5033420;28;20186;-66
2022/07/01 00:26:32;;;;;;;31.47;20.50;;;;;;;;;;5032924;28;20187;-66
2022/07/01 00:28:58;;;;;;;25.90;18.90;;;;;;;;;;5032846;28;20195;-66
2022/07/01 00:31:24;;;;;;;29.83;21.13;;;;;;;;;;5032774;28;20583;-66
2022/07/01 00:33:50;;;;;;;24.63;18.97;;;;;;;;;;5033163;28;20214;-66
2022/07/01 00:36:16;;;;;;;27.33;18.93;;;;;;;;;;5033333;28;20203;-66
2022/07/01 00:38:42;;;;;;;24.63;16.90;;;;;;;;;;5033215;28;20261;-68
2022/07/01 00:41:08;;;;;;;26.63;17.40;;;;;;;;;;5032876;28;20195;-67
2022/07/01 00:43:38;;;;;;;24.03;16.93;;;;;;;;;;5033245;28;20577;-66
2022/07/01 00:46:04;;;;;;;21.97;15.83;;;;;;;;;;5032743;28;20175;-66
2022/07/01 00:48:32;;;;;;;19.80;14.83;;;;;;;;;;5034952;28;20265;-66
2022/07/01 00:50:58;;;;;;;21.07;15.30;;;;;;;;;;5036385;28;20210;-66
2022/07/01 00:53:24;;;;;;;21.13;15.20;;;;;;;;;;5036409;28;20667;-66
2022/07/01 00:55:50;;;;;;;17.87;13.27;;;;;;;;;;5036349;28;20286;-66
2022/07/01 00:58:16;;;;;;;17.60;14.73;;;;;;;;;;5018787;28;20179;-66
2022/07/01 01:00:42;;;;;;;18.00;13.00;;;;;;;;;;5036098;28;20683;-66
2022/07/01 01:03:10;;;;;;;17.90;12.23;;;;;;;;;;5018575;28;20179;-66
2022/07/01 01:05:36;;;;;;;15.37;11.30;;;;;;;;;;5036425;28;20178;-66
2022/07/01 01:08:03;;;;;;;18.00;12.07;;;;;;;;;;5036014;28;20262;-66
2022/07/01 01:10:30;;;;;;;13.67;11.57;;;;;;;;;;5036048;28;20198;-66
2022/07/01 01:12:57;;;;;;;16.93;11.53;;;;;;;;;;5018201;28;20214;-67
2022/07/01 01:15:23;;;;;;;15.80;11.27;;;;;;;;;;5035816;28;20214;-67
2022/07/01 01:17:49;;;;;;;14.67;11.43;;;;;;;;;;5036196;28;20183;-67
2022/07/01 01:20:19;;;;;;;14.70;10.87;;;;;;;;;;5035888;28;20180;-67
2022/07/01 01:22:46;;;;;;;15.07;10.57;;;;;;;;;;5018095;28;20179;-66
2022/07/01 01:25:13;;;;;;;14.17;9.87;;;;;;;;;;5036050;28;20171;-67
2022/07/01 01:27:39;;;;;;;12.07;10.03;;;;;;;;;;5035738;28;20268;-67
2022/07/01 01:30:05;;;;;;;14.47;10.40;;;;;;;;;;5018130;28;20183;-66
2022/07/01 01:32:31;;;;;;;12.57;9.30;;;;;;;;;;5018016;28;20199;-67
2022/07/01 01:34:57;;;;;;;12.47;9.40;;;;;;;;;;5035545;28;20213;-66
2022/07/01 01:37:23;;;;;;;12.57;8.50;;;;;;;;;;5017761;28;20178;-67
2022/07/01 01:39:49;;;;;;;15.10;8.93;;;;;;;;;;5035569;28;20259;-67
2022/07/01 01:42:15;;;;;;;11.83;9.13;;;;;;;;;;5035571;28;20230;-67
2022/07/01 01:44:41;;;;;;;11.60;8.43;;;;;;;;;;5035850;28;20662;-66
2022/07/01 01:47:07;;;;;;;10.80;8.43;;;;;;;;;;5035935;28;20202;-67
2022/07/01 01:49:33;;;;;;;13.60;8.53;;;;;;;;;;5035585;28;20647;-66
2022/07/01 01:51:59;;;;;;;11.47;8.87;;;;;;;;;;5035963;28;20252;-67
2022/07/01 01:54:26;;;;;;;12.57;8.30;;;;;;;;;;5035374;28;20179;-66
2022/07/01 01:56:51;;;;;;;13.83;8.37;;;;;;;;;;5035292;28;20207;-66
2022/07/01 01:59:18;;;;;;;14.67;8.50;;;;;;;;;;5035052;28;20544;-66
2022/07/01 02:01:44;;;;;;;14.03;9.10;;;;;;;;;;5034909;28;20215;-66
2022/07/01 02:04:10;;;;;;;14.60;8.40;;;;;;;;;;5017408;28;20179;-66
2022/07/01 02:06:37;;;;;;;12.60;8.40;;;;;;;;;;5035643;28;20655;-66
2022/07/01 02:09:03;;;;;;;15.13;8.73;;;;;;;;;;5017236;28;20175;-66
2022/07/01 02:11:29;;;;;;;12.57;7.87;;;;;;;;;;5017285;28;20672;-66
2022/07/01 02:13:55;;;;;;;16.53;8.77;;;;;;;;;;5035456;28;20229;-67
2022/07/01 02:16:21;;;;;;;13.50;8.83;;;;;;;;;;5035468;28;20253;-66
2022/07/01 02:18:48;;;;;;;15.77;8.50;;;;;;;;;;5034954;28;20226;-66
2022/07/01 02:21:14;;;;;;;15.00;9.30;;;;;;;;;;5034687;28;20569;-67
2022/07/01 02:23:40;;;;;;;15.03;9.47;;;;;;;;;;5034610;28;20175;-66
2022/07/01 02:26:06;;;;;;;15.67;9.43;;;;;;;;;;5035021;28;20183;-65
2022/07/01 02:28:33;;;;;;;16.87;10.10;;;;;;;;;;5034669;28;20547;-66
2022/07/01 02:30:59;;;;;;;20.00;8.90;;;;;;;;;;5034815;28;20203;-66
2022/07/01 02:33:25;;;;;;;15.30;9.77;;;;;;;;;;5016709;28;20190;-66
2022/07/01 02:35:51;;;;;;;15.43;10.43;;;;;;;;;;5034575;28;20569;-66
2022/07/01 02:38:17;;;;;;;15.00;9.50;;;;;;;;;;5034446;28;20171;-66
2022/07/01 02:40:43;;;;;;;17.17;10.07;;;;;;;;;;5034633;28;20640;-66
2022/07/01 02:43:09;;;;;;;13.50;9.27;;;;;;;;;;5034323;28;20674;-66
2022/07/01 02:45:35;;;;;;;14.73;9.30;;;;;;;;;;5034903;28;20179;-66
2022/07/01 02:48:01;;;;;;;15.70;9.97;;;;;;;;;;5034437;28;20229;-66
2022/07/01 02:50:28;;;;;;;14.67;9.27;;;;;;;;;;5016362;28;20593;-66
2022/07/01 02:52:54;;;;;;;17.27;9.60;;;;;;;;;;5034188;28;20190;-66
2022/07/01 02:55:20;;;;;;;14.60;9.67;;;;;;;;;;5033959;28;20213;-66
2022/07/01 02:57:49;;;;;;;14.83;9.30;;;;;;;;;;5034019;28;20262;-66
2022/07/01 03:00:15;;;;;;;16.23;9.53;;;;;;;;;;5016175;28;20183;-66
2022/07/01 03:02:41;;;;;;;13.70;9.03;;;;;;;;;;5034129;28;20182;-66
2022/07/01 03:05:08;;;;;;;14.97;9.57;;;;;;;;;;5033801;28;20183;-66
2022/07/01 03:07:37;;;;;;;11.83;9.13;;;;;;;;;;5033770;28;20644;-66
2022/07/01 03:10:03;;;;;;;13.60;9.23;;;;;;;;;;5015445;28;20690;-66
2022/07/01 03:12:29;;;;;;;13.73;8.77;;;;;;;;;;5015972;28;20675;-66
2022/07/01 03:14:56;;;;;;;12.10;8.90;;;;;;;;;;5033908;28;20175;-66
2022/07/01 03:17:22;;;;;;;17.37;9.27;;;;;;;;;;5033830;28;20675;-66
2022/07/01 03:19:49;;;;;;;11.83;8.27;;;;;;;;;;5015954;28;20183;-66
2022/07/01 03:22:15;;;;;;;14.07;9.50;;;;;;;;;;5033613;28;20717;-66
2022/07/01 03:24:41;;;;;;;10.77;8.53;;;;;;;;;;5016090;28;20183;-66
2022/07/01 03:27:07;;;;;;;11.80;8.97;;;;;;;;;;5033559;28;20640;-66
2022/07/01 03:29:33;;;;;;;10.50;8.77;;;;;;;;;;5033654;28;20179;-66
2022/07/01 03:31:59;;;;;;;17.57;10.43;;;;;;;;;;5033331;28;20284;-66
2022/07/01 03:34:25;;;;;;;15.03;9.77;;;;;;;;;;5033567;28;20209;-66
2022/07/01 03:36:51;;;;;;;13.53;10.17;;;;;;;;;;5033545;28;20249;-66
2022/07/01 03:39:17;;;;;;;13.77;10.23;;;;;;;;;;5034004;28;20175;-66
2022/07/01 03:41:44;;;;;;;12.83;10.23;;;;;;;;;;5033839;28;20191;-66
2022/07/01 03:44:10;;;;;;;17.03;10.27;;;;;;;;;;5017017;28;20666;-66
2022/07/01 03:46:37;;;;;;;15.47;10.27;;;;;;;;;;5016297;28;20235;-66
2022/07/01 03:49:04;;;;;;;17.47;10.10;;;;;;;;;;5015898;28;20187;-66
2022/07/01 03:51:30;;;;;;;15.13;10.33;;;;;;;;;;5033657;28;20195;-66
2022/07/01 03:56:40;;;;;;;12.47;9.97;;;;;;;;;;5033503;28;20210;-66
2022/07/01 03:59:06;;;;;;;16.40;10.97;;;;;;;;;;5033750;28;20171;-66
2022/07/01 04:01:32;;;;;;;17.40;10.43;;;;;;;;;;5015296;28;20710;-66
2022/07/01 04:03:58;;;;;;;14.73;10.13;;;;;;;;;;5033097;28;20229;-66
2022/07/01 04:06:24;;;;;;;13.37;9.30;;;;;;;;;;5033248;28;20187;-65
2022/07/01 04:08:50;;;;;;;14.37;9.67;;;;;;;;;;5015339;28;20179;-66
2022/07/01 04:11:16;;;;;;;15.47;9.77;;;;;;;;;;5033560;28;20249;-66
2022/07/01 04:13:50;;;;;;;18.17;9.13;;;;;;;;;;5033609;28;20206;-66
2022/07/01 04:16:16;;;;;;;12.50;9.43;;;;;;;;;;5032954;28;20218;-66
2022/07/01 04:18:42;;;;;;;13.57;10.20;;;;;;;;;;5033023;28;20183;-66
2022/07/01 04:23:58;;;;;;;13.97;9.43;;;;;;;;;;4990168;28;20202;-66
2022/07/01 04:26:24;;;;;;;13.30;8.63;;;;;;;;;;5036905;28;20179;-66
2022/07/01 04:28:51;;;;;;;10.60;8.30;;;;;;;;;;5036778;28;20187;-66
2022/07/01 04:31:17;;;;;;;10.23;8.13;;;;;;;;;;5036906;28;20203;-66
2022/07/01 04:33:43;;;;;;;12.83;8.57;;;;;;;;;;5018990;28;20187;-66
2022/07/01 04:36:09;;;;;;;11.93;8.80;;;;;;;;;;5037090;28;20663;-66
2022/07/01 04:38:35;;;;;;;11.27;8.50;;;;;;;;;;5036916;28;20178;-66
2022/07/01 04:43:45;;;;;;;11.37;7.67;;;;;;;;;;5036989;28;20194;-66
2022/07/01 04:46:11;;;;;;;14.27;7.97;;;;;;;;;;5037167;28;20546;-67
2022/07/01 04:48:37;;;;;;;9.53;8.07;;;;;;;;;;5037133;28;20539;-65
2022/07/01 04:51:03;;;;;;;11.20;8.53;;;;;;;;;;5036544;28;20675;-66
2022/07/01 04:53:29;;;;;;;8.87;7.10;;;;;;;;;;5036567;28;20183;-66
2022/07/01 04:55:55;;;;;;;10.53;7.73;;;;;;;;;;5037028;28;20626;-66
2022/07/01 04:58:21;;;;;;;11.43;7.63;;;;;;;;;;5036710;28;20627;-66
2022/07/01 05:00:48;;;;;;;10.53;7.60;;;;;;;;;;5018387;28;20619;-66
2022/07/01 05:03:14;;;;;;;15.70;8.20;;;;;;;;;;5036569;28;20612;-66
2022/07/01 05:05:40;;;;;;;10.37;7.50;;;;;;;;;;5036462;28;20215;-66
2022/07/01 05:08:06;;;;;;;8.77;7.00;;;;;;;;;;5036853;28;20213;-66
2022/07/01 05:10:32;;;;;;;11.20;6.90;;;;;;;;;;5036357;28;20203;-66
2022/07/01 05:12:58;;;;;;;8.37;7.47;;;;;;;;;;5036188;28;20186;-66
2022/07/01 05:15:25;;;;;;;8.83;6.93;;;;;;;;;;5018436;28;20213;-66
2022/07/01 05:23:20;;;;;;;7.80;7.00;;;;;;;;;;5036339;28;20213;-66
2022/07/01 05:25:46;;;;;;;11.00;6.93;;;;;;;;;;5036097;28;20179;-66
2022/07/01 05:28:12;;;;;;;9.33;7.07;;;;;;;;;;5036021;28;20185;-66
2022/07/01 05:30:38;;;;;;;12.23;7.13;;;;;;;;;;5036116;28;20199;-66
2022/07/01 05:33:04;;;;;;;10.83;6.80;;;;;;;;;;5035178;28;20179;-66
2022/07/01 05:35:30;;;;;;;8.40;7.53;;;;;;;;;;5035760;28;20218;-66
2022/07/01 05:37:56;;;;;;;13.40;6.60;;;;;;;;;;5036322;28;20186;-66
2022/07/01 05:40:22;;;;;;;12.73;7.30;;;;;;;;;;5036061;28;20175;-66
2022/07/01 05:42:48;;;;;;;11.50;6.93;;;;;;;;;;5035980;28;20690;-66
2022/07/01 05:45:14;;;;;;;8.87;7.23;;;;;;;;;;5035578;28;20179;-66
2022/07/01 05:47:41;;;;;;;10.37;7.07;;;;;;;;;;5059894;23;20641;-67
2022/07/01 05:50:07;;;;;;;8.27;6.77;;;;;;;;;;5075729;28;20179;-66
2022/07/01 05:52:33;;;;;;;10.20;7.10;;;;;;;;;;5075358;28;20178;-67
2022/07/01 05:54:59;;;;;;;8.87;7.30;;;;;;;;;;5075260;28;20173;-66
2022/07/01 05:57:24;;;;;;;9.03;7.73;;;;;;;;;;5075354;28;20197;-68
2022/07/01 05:59:50;;;;;;;9.73;7.93;;;;;;;;;;5075452;28;20174;-68
2022/07/01 06:02:16;;;;;;;15.03;8.87;;;;;;;;;;5075834;28;20170;-67
2022/07/01 06:04:43;;;;;;;11.67;8.07;;;;;;;;;;5056957;28;20203;-68
2022/07/01 06:07:10;;;;;;;12.73;8.73;;;;;;;;;;5075037;28;20178;-67
2022/07/01 06:09:36;;;;;;;9.30;7.87;;;;;;;;;;5074943;28;20174;-68
2022/07/01 06:12:03;;;;;;;13.00;8.10;;;;;;;;;;5074828;28;20200;-66
2022/07/01 06:14:29;;;;;;;9.73;7.83;;;;;;;;;;5056950;28;20182;-67
2022/07/01 06:16:54;;;;;;;13.00;7.47;;;;;;;;;;5056857;28;20271;-67
2022/07/01 06:19:20;;;;;;;7.83;6.73;;;;;;;;;;5074660;28;20240;-67
2022/07/01 06:21:47;;;;;;;11.20;8.13;;;;;;;;;;5074697;28;20214;-67
2022/07/01 06:24:13;;;;;;;8.43;7.53;;;;;;;;;;5074705;28;20178;-67
2022/07/01 06:26:39;;;;;;;12.33;6.90;;;;;;;;;;5074568;28;20202;-67
2022/07/01 06:29:05;;;;;;;11.67;7.50;;;;;;;;;;5074627;28;20229;-67
2022/07/01 06:31:33;;;;;;;11.50;7.53;;;;;;;;;;5074429;28;20182;-67
2022/07/01 06:33:59;;;;;;;8.33;7.47;;;;;;;;;;5074610;28;20174;-67
2022/07/01 06:36:25;;;;;;;10.23;7.90;;;;;;;;;;5074224;28;20197;-67
2022/07/01 06:38:51;;;;;;;9.53;7.63;;;;;;;;;;5074217;28;20205;-67
2022/07/01 06:41:26;;;;;;;10.03;8.30;;;;;;;;;;5074065;28;20740;-67
2022/07/01 06:43:53;;;;;;;9.53;6.87;;;;;;;;;;5074566;28;20249;-67
2022/07/01 06:46:19;;;;;;;8.63;7.20;;;;;;;;;;5073413;28;20184;-67
2022/07/01 06:48:45;;;;;;;8.77;6.63;;;;;;;;;;5074049;28;20213;-67
2022/07/01 06:51:11;;;;;;;11.43;7.73;;;;;;;;;;5073952;28;20192;-67
2022/07/01 06:53:37;;;;;;;11.37;7.07;;;;;;;;;;5056277;28;20181;-67
2022/07/01 06:56:03;;;;;;;9.10;6.87;;;;;;;;;;5073946;28;20201;-67
2022/07/01 06:58:29;;;;;;;7.80;5.90;;;;;;;;;;5073831;28;20225;-67
2022/07/01 07:00:55;;;;;;;9.20;6.17;;;;;;;;;;5056038;28;20239;-67
2022/07/01 07:03:21;;;;;;;9.47;6.17;;;;;;;;;;5073759;28;20182;-67
2022/07/01 07:05:47;;;;;;;6.20;5.60;;;;;;;;;;5073781;28;20590;-67
2022/07/01 07:08:13;;;;;;;7.23;6.50;;;;;;;;;;5074011;28;20288;-67
2022/07/01 07:10:39;;;;;;;7.23;5.60;;;;;;;;;;5055842;28;20186;-67
2022/07/01 07:13:05;;;;;;;7.53;5.57;;;;;;;;;;5073659;28;20174;-66
2022/07/01 07:15:31;;;;;;;8.57;5.43;;;;;;;;;;5055748;28;20296;-67
2022/07/01 07:17:57;;;;;;;9.27;5.07;;;;;;;;;;5073657;28;20228;-67
2022/07/01 07:20:26;;;;;;;7.13;5.07;;;;;;;;;;5073654;28;20181;-67
2022/07/01 07:22:52;;;;;;;6.10;5.13;;;;;;;;;;5055692;28;20174;-66
2022/07/01 07:25:18;;;;;;;8.03;5.10;;;;;;;;;;5074142;28;20205;-67
2022/07/01 07:27:46;;;;;;;6.77;5.03;;;;;;;;;;5055543;28;20224;-67
2022/07/01 07:30:15;;;;;;;4.77;4.37;;;;;;;;;;5055485;28;20188;-67
2022/07/01 07:32:41;;;;;;;7.03;4.97;;;;;;;;;;5055647;28;20174;-68
2022/07/01 07:35:08;;;;;;;6.70;4.90;;;;;;;;;;5073496;28;20178;-67
2022/07/01 07:37:34;;;;;;;6.20;4.63;;;;;;;;;;5055600;28;20218;-67
2022/07/01 07:40:00;;;;;;;5.10;4.60;;;;;;;;;;5073427;28;20180;-67
2022/07/01 07:42:26;;;;;;;5.47;4.50;;;;;;;;;;5073567;28;20539;-67
2022/07/01 07:44:52;;;;;;;7.00;4.53;;;;;;;;;;5055623;28;20180;-67
2022/07/01 07:47:18;;;;;;;4.87;4.47;;;;;;;;;;5072965;28;20185;-66
2022/07/01 07:49:44;;;;;;;5.53;4.13;;;;;;;;;;5073297;28;20182;-67
2022/07/01 07:52:11;;;;;;;6.70;4.13;;;;;;;;;;5073103;28;20174;-67
2022/07/01 07:54:37;;;;;;;6.20;4.63;;;;;;;;;;5055024;28;20558;-67
2022/07/01 07:57:03;;;;;;;7.70;4.37;;;;;;;;;;5073031;28;20201;-67
2022/07/01 07:59:29;;;;;;;4.90;4.07;;;;;;;;;;5054922;28;20695;-67
2022/07/01 08:01:55;;;;;;;4.97;4.30;;;;;;;;;;5073197;28;20182;-67
2022/07/01 08:04:21;;;;;;;7.27;4.30;;;;;;;;;;5073070;28;20174;-67
2022/07/01 08:06:47;;;;;;;5.37;4.23;;;;;;;;;;5073113;28;20572;-67
2022/07/01 08:09:13;;;;;;;10.03;4.30;;;;;;;;;;5072929;28;20669;-67
2022/07/01 08:11:39;;;;;;;6.10;4.33;;;;;;;;;;5055620;28;20637;-67
2022/07/01 08:14:05;;;;;;;6.33;4.13;;;;;;;;;;5073145;28;20178;-68
2022/07/01 08:16:31;;;;;;;4.87;4.37;;;;;;;;;;5054918;28;20237;-67
2022/07/01 08:18:57;;;;;;;4.23;3.83;;;;;;;;;;5054716;28;20292;-67
2022/07/01 08:21:23;;;;;;;4.73;3.23;;;;;;;;;;5054922;28;20220;-67
2022/07/01 08:23:49;;;;;;;5.07;3.50;;;;;;;;;;5072910;28;20181;-67
2022/07/01 08:26:16;;;;;;;4.43;3.77;;;;;;;;;;5073461;28;20186;-67
2022/07/01 08:28:43;;;;;;;4.30;3.20;;;;;;;;;;5054887;28;20202;-66
2022/07/01 08:31:09;;;;;;;3.80;3.40;;;;;;;;;;5073011;28;20178;-67
2022/07/01 08:33:37;;;;;;;4.57;2.90;;;;;;;;;;5054872;28;20185;-67
2022/07/01 08:36:03;;;;;;;3.30;3.00;;;;;;;;;;5073078;28;20681;-67
2022/07/01 08:38:29;;;;;;;4.07;2.60;;;;;;;;;;5072906;28;20227;-67
2022/07/01 08:40:55;;;;;;;6.83;2.90;;;;;;;;;;5055027;28;20207;-67
2022/07/01 08:43:21;;;;;;;4.53;2.43;;;;;;;;;;5072877;28;20182;-67
2022/07/01 08:45:48;;;;;;;3.57;3.00;;;;;;;;;;5072842;28;20185;-67
2022/07/01 08:48:14;;;;;;;2.57;2.37;;;;;;;;;;5072402;28;20296;-67
2022/07/01 08:50:40;;;;;;;5.23;2.93;;;;;;;;;;5072903;28;20269;-67
2022/07/01 08:53:07;;;;;;;2.87;2.57;;;;;;;;;;5072594;28;20645;-67
2022/07/01 08:56:40;;;;;;;4.63;2.70;;;;;;;;;;5072745;28;20566;-68
2022/07/01 08:58:20;;;;;;;3.57;2.60;;;;;;;;;;5072183;28;20669;-67
2022/07/01 09:00:46;;;;;;;4.20;2.60;;;;;;;;;;5054348;28;20185;-67
2022/07/01 09:03:12;;;;;;;5.63;3.10;;;;;;;;;;5054332;28;20173;-67
2022/07/01 09:05:38;;;;;;;4.20;2.50;;;;;;;;;;5072653;28;20235;-68
2022/07/01 09:08:05;;;;;;;5.90;2.30;;;;;;;;;;5054111;28;20542;-67
2022/07/01 09:10:34;;;;;;;2.77;1.80;;;;;;;;;;5075785;28;20625;-67
2022/07/01 09:13:14;;;;;;;3.73;2.30;;;;;;;;;;5075837;28;20557;-67
2022/07/01 09:15:41;;;;;;;2.57;2.20;;;;;;;;;;5076188;28;20259;-67
2022/07/01 09:18:14;;;;;;;3.73;2.17;;;;;;;;;;5075774;28;20205;-67
2022/07/01 09:20:41;;;;;;;2.60;1.90;;;;;;;;;;5075747;28;20182;-67
2022/07/01 09:23:12;;;;;;;3.73;2.10;;;;;;;;;;5058003;28;20193;-67
2022/07/01 09:25:39;;;;;;;3.17;1.80;;;;;;;;;;5058627;28;20182;-67
2022/07/01 09:28:05;;;;;;;5.30;1.97;;;;;;;;;;5075999;28;20665;-68
2022/07/01 09:30:32;;;;;;;2.77;1.57;;;;;;;;;;5076160;28;20180;-68
2022/07/01 09:33:12;;;;;;;2.50;1.70;;;;;;;;;;5057730;28;20181;-67
2022/07/01 09:35:38;;;;;;;2.03;1.50;;;;;;;;;;5075422;28;20213;-68
2022/07/01 09:38:05;;;;;;;2.00;1.50;;;;;;;;;;5075470;28;20600;-67
2022/07/01 09:40:47;;;;;;;2.77;1.50;;;;;;;;;;5057345;28;20176;-67
2022/07/01 09:43:33;;;;;;;1.50;1.30;;;;;;;;;;5075274;28;20257;-67
2022/07/01 09:46:11;;;;;;;1.73;1.57;;;;;;;;;;5075688;28;20206;-68
2022/07/01 09:48:37;;;;;;;3.20;1.70;;;;;;;;;;5057043;28;20213;-67
2022/07/01 09:51:04;;;;;;;1.57;1.40;;;;;;;;;;5057310;28;20178;-68
2022/07/01 09:53:30;;;;;;;2.67;1.50;;;;;;;;;;5075208;28;20184;-68
2022/07/01 09:55:57;;;;;;;2.67;1.50;;;;;;;;;;5057210;28;20292;-67
2022/07/01 09:58:23;;;;;;;2.53;1.03;;;;;;;;;;5057069;28;20248;-67
2022/07/01 10:00:49;;;;;;;1.90;1.30;;;;;;;;;;5075002;28;20543;-68
2022/07/01 10:03:18;;;;;;;1.97;1.40;;;;;;;;;;5075123;28;20187;-68
2022/07/01 10:06:10;;;;;;;1.73;1.50;;;;;;;;;;5075042;28;20184;-68
2022/07/01 10:08:45;;;;;;;1.63;1.20;;;;;;;;;;5071106;28;20240;-67
2022/07/01 10:11:14;;;;;;;1.30;1.20;;;;;;;;;;5075053;28;20173;-68
2022/07/01 10:13:41;;;;;;;3.23;1.50;;;;;;;;;;5057064;28;20638;-67
2022/07/01 10:16:08;;;;;;;1.40;1.30;;;;;;;;;;5074678;28;20694;-67
2022/07/01 10:18:34;;;;;;;2.57;1.70;;;;;;;;;;5074843;28;20197;-68
2022/07/01 10:21:00;;;;;;;2.90;1.47;;;;;;;;;;5056675;28;20261;-68
2022/07/01 10:23:37;;;;;;;3.27;1.73;;;;;;;;;;5056896;28;20642;-67
2022/07/01 10:26:04;;;;;;;2.43;1.37;;;;;;;;;;5056794;28;20178;-67
2022/07/01 10:28:43;;;;;;;1.40;1.20;;;;;;;;;;5056460;28;20201;-67
2022/07/01 10:31:16;;;;;;;2.73;1.80;;;;;;;;;;5056527;28;20264;-68
2022/07/01 10:33:42;;;;;;;2.60;1.60;;;;;;;;;;5074838;28;20177;-67
2022/07/01 10:36:18;;;;;;;2.10;1.63;;;;;;;;;;5074379;28;20201;-65
2022/07/01 10:39:06;;;;;;;2.37;1.43;;;;;;;;;;5074494;28;20205;-67
2022/07/01 10:41:58;;;;;;;4.77;1.43;;;;;;;;;;5056326;28;20174;-67
2022/07/01 10:44:25;;;;;;;4.43;1.57;;;;;;;;;;5070954;28;20200;-68
2022/07/01 10:46:59;;;;;;;3.00;1.40;;;;;;;;;;5056331;28;20188;-68
2022/07/01 10:49:37;;;;;;;2.30;1.30;;;;;;;;;;5074295;28;20214;-68
2022/07/01 10:52:15;;;;;;;5.50;1.70;;;;;;;;;;5074450;28;20193;-68
2022/07/01 10:54:45;;;;;;;1.70;1.60;;;;;;;;;;5073917;28;20256;-67
2022/07/01 10:57:14;;;;;;;4.73;1.77;;;;;;;;;;5074347;28;20228;-66
2022/07/01 10:59:40;;;;;;;3.87;1.70;;;;;;;;;;5074531;28;20193;-68
2022/07/01 11:02:12;;;;;;;1.90;1.67;;;;;;;;;;5074130;28;20642;-68
2022/07/01 11:04:38;;;;;;;3.73;1.70;;;;;;;;;;5074381;28;20652;-67
2022/07/01 11:07:04;;;;;;;1.90;1.70;;;;;;;;;;5056146;28;20217;-68
2022/07/01 11:09:30;;;;;;;4.80;1.60;;;;;;;;;;5074086;28;20286;-68
2022/07/01 11:11:56;;;;;;;3.80;1.20;;;;;;;;;;5073975;28;20182;-67
2022/07/01 11:14:23;;;;;;;3.97;1.77;;;;;;;;;;5073706;28;20224;-67
2022/07/01 11:16:49;;;;;;;1.83;1.27;;;;;;;;;;5073984;28;20209;-67
2022/07/01 11:19:18;;;;;;;3.10;1.43;;;;;;;;;;5055805;28;20194;-67
2022/07/01 11:21:53;;;;;;;1.13;1.00;;;;;;;;;;5073648;28;20607;-63
2022/07/01 11:24:20;;;;;;;2.67;1.37;;;;;;;;;;5074043;28;20572;-67
2022/07/01 11:26:46;;;;;;;3.40;1.47;;;;;;;;;;5055642;28;20277;-67
2022/07/01 11:29:12;;;;;;;1.90;1.20;;;;;;;;;;5073673;28;20625;-67
2022/07/01 11:31:38;;;;;;;5.13;1.30;;;;;;;;;;5073347;28;20247;-66
2022/07/01 11:34:04;;;;;;;2.57;1.30;;;;;;;;;;5055707;28;20638;-67
2022/07/01 11:39:23;;;;;;;3.50;1.50;;;;;;;;;;5074187;28;20204;-67
2022/07/01 11:41:56;;;;;;;3.23;1.60;;;;;;;;;;5055765;28;20170;-67
2022/07/01 11:44:31;;;;;;;2.93;1.20;;;;;;;;;;5073757;28;20637;-68
2022/07/01 11:46:57;;;;;;;2.90;1.10;;;;;;;;;;5055458;28;20272;-67
2022/07/01 11:49:23;;;;;;;2.53;1.20;;;;;;;;;;5073171;28;20213;-68
2022/07/01 11:52:00;;;;;;;1.43;1.00;;;;;;;;;;5073229;28;20177;-67
2022/07/01 11:54:26;;;;;;;1.90;1.10;;;;;;;;;;5073312;28;20177;-67
2022/07/01 11:56:52;;;;;;;1.70;1.33;;;;;;;;;;5073663;28;20208;-67
2022/07/01 11:59:19;;;;;;;1.67;1.10;;;;;;;;;;5055021;28;20194;-68
2022/07/01 12:01:51;;;;;;;1.40;1.00;;;;;;;;;;5073428;28;20176;-68
2022/07/01 12:04:17;;;;;;;1.70;1.23;;;;;;;;;;5073173;28;20622;-68
2022/07/01 12:06:43;;;;;;;2.07;1.47;;;;;;;;;;5055094;28;20288;-68
2022/07/01 12:09:16;;;;;;;2.30;1.17;;;;;;;;;;5073233;28;20559;-68
2022/07/01 12:11:46;;;;;;;1.20;1.10;;;;;;;;;;5073206;28;20237;-68
2022/07/01 12:14:12;;;;;;;2.07;1.10;;;;;;;;;;5073190;28;20573;-68
2022/07/01 12:16:39;;;;;;;4.10;1.40;;;;;;;;;;5073507;28;20229;-68
2022/07/01 12:19:05;;;;;;;1.53;1.07;;;;;;;;;;5055119;28;20263;-68
2022/07/01 12:21:31;;;;;;;2.47;1.43;;;;;;;;;;5073068;28;20173;-68
2022/07/01 12:24:04;;;;;;;1.63;1.10;;;;;;;;;;5054976;28;20178;-68
2022/07/01 12:26:30;;;;;;;1.30;1.10;;;;;;;;;;5055092;28;20193;-68
2022/07/01 12:28:56;;;;;;;1.50;0.93;;;;;;;;;;5073088;28;20201;-68
2022/07/01 12:31:22;;;;;;;1.30;0.90;;;;;;;;;;5073209;28;20177;-68
2022/07/01 12:33:49;;;;;;;2.00;1.30;;;;;;;;;;5055018;28;20622;-67
2022/07/01 12:36:15;;;;;;;4.30;1.40;;;;;;;;;;5073016;28;20202;-68
2022/07/01 12:38:42;;;;;;;2.73;1.13;;;;;;;;;;5055025;28;20692;-67
2022/07/01 12:41:33;;;;;;;1.00;1.00;;;;;;;;;;5072847;28;20261;-68
2022/07/01 12:43:59;;;;;;;1.80;1.00;;;;;;;;;;5074234;28;20190;-67
2022/07/01 12:46:28;;;;;;;1.17;1.07;;;;;;;;;;5076567;28;20189;-68
2022/07/01 12:48:54;;;;;;;1.67;1.33;;;;;;;;;;5058412;28;20213;-67
2022/07/01 12:51:20;;;;;;;1.27;1.17;;;;;;;;;;5076670;28;20192;-68
2022/07/01 12:53:46;;;;;;;1.23;1.13;;;;;;;;;;5076321;28;20600;-67
2022/07/01 12:56:26;;;;;;;1.20;0.90;;;;;;;;;;5076607;28;20198;-69
2022/07/01 12:58:52;;;;;;;2.93;1.30;;;;;;;;;;5076225;28;20190;-68
2022/07/01 13:01:19;;;;;;;1.50;1.07;;;;;;;;;;5076516;28;20177;-68
2022/07/01 13:03:45;;;;;;;2.67;1.57;;;;;;;;;;5058218;28;20706;-68
2022/07/01 13:06:11;;;;;;;3.47;1.20;;;;;;;;;;5058251;28;20268;-68
2022/07/01 13:08:37;;;;;;;2.00;1.13;;;;;;;;;;5076447;28;20665;-68
2022/07/01 13:11:03;;;;;;;1.30;1.20;;;;;;;;;;5076608;28;20177;-67
2022/07/01 13:13:29;;;;;;;2.00;1.20;;;;;;;;;;5076067;28;20188;-68
2022/07/01 13:15:55;;;;;;;2.23;1.30;;;;;;;;;;5058259;28;20208;-68
2022/07/01 13:18:21;;;;;;;2.30;1.17;;;;;;;;;;5076131;28;20194;-68
2022/07/01 13:20:48;;;;;;;1.30;1.03;;;;;;;;;;5058090;28;20178;-68
2022/07/01 13:23:14;;;;;;;2.13;1.20;;;;;;;;;;5075906;28;20181;-68
2022/07/01 13:25:40;;;;;;;1.63;1.07;;;;;;;;;;5076091;28;20582;-68
2022/07/01 13:28:06;;;;;;;1.70;1.00;;;;;;;;;;5076004;28;20243;-68
2022/07/01 13:30:32;;;;;;;2.20;1.17;;;;;;;;;;5057822;28;20177;-69
2022/07/01 13:32:58;;;;;;;2.37;1.20;;;;;;;;;;5075829;28;20178;-67
2022/07/01 13:35:24;;;;;;;4.63;1.40;;;;;;;;;;5075816;28;20182;-68
2022/07/01 13:37:51;;;;;;;1.53;1.00;;;;;;;;;;5075640;28;20193;-68
2022/07/01 13:40:17;;;;;;;1.70;1.30;;;;;;;;;;5076262;28;20247;-68
2022/07/01 13:42:43;;;;;;;1.33;1.03;;;;;;;;;;5075912;28;20174;-68
2022/07/01 13:45:09;;;;;;;1.47;1.20;;;;;;;;;;5075514;28;20174;-68
2022/07/01 13:47:36;;;;;;;1.77;1.27;;;;;;;;;;5075346;28;20306;-68
2022/07/01 13:50:02;;;;;;;2.72;1.50;;;;;;;;;;5074671;28;20403;-68
2022/07/01 13:52:28;;;;;;;1.43;1.33;;;;;;;;;;5075394;28;20250;-68
2022/07/01 13:54:54;;;;;;;1.47;1.10;;;;;;;;;;5074889;28;20590;-68
2022/07/01 13:57:20;;;;;;;2.50;1.17;;;;;;;;;;5075334;28;20194;-69
2022/07/01 13:59:46;;;;;;;3.22;1.52;;;;;;;;;;5074183;28;20429;-68
2022/07/01 14:02:12;;;;;;;2.50;1.27;;;;;;;;;;5075543;28;20202;-68
2022/07/01 14:04:38;;;;;;;1.93;1.30;;;;;;;;;;5057074;28;20251;-69
2022/07/01 14:07:04;;;;;;;1.40;1.30;;;;;;;;;;5075014;28;20188;-69
2022/07/01 14:09:30;;;;;;;3.20;1.33;;;;;;;;;;5057151;28;20201;-68
2022/07/01 14:11:56;;;;;;;1.60;1.50;;;;;;;;;;5057107;28;20185;-68
2022/07/01 14:14:22;;;;;;;2.37;1.47;;;;;;;;;;5074954;28;20533;-68
2022/07/01 14:16:48;;;;;;;1.90;1.40;;;;;;;;;;5074881;28;20208;-67
2022/07/01 14:19:14;;;;;;;3.23;1.47;;;;;;;;;;5074658;28;20202;-68
2022/07/01 14:21:40;;;;;;;1.50;1.20;;;;;;;;;;5056789;28;20174;-68
2022/07/01 14:24:06;;;;;;;2.37;1.20;;;;;;;;;;5075052;28;20240;-68
2022/07/01 14:26:32;;;;;;;2.70;1.20;;;;;;;;;;5074995;28;20563;-68
2022/07/01 14:28:58;;;;;;;1.40;1.10;;;;;;;;;;5074639;28;20197;-68
2022/07/01 14:31:24;;;;;;;2.30;1.73;;;;;;;;;;5074492;28;20190;-68
2022/07/01 14:33:50;;;;;;;3.63;1.57;;;;;;;;;;5074684;28;20235;-68
2022/07/01 14:36:16;;;;;;;1.30;1.20;;;;;;;;;;5056438;28;20204;-67
2022/07/01 14:38:42;;;;;;;1.73;1.30;;;;;;;;;;5074686;28;20194;-68
2022/07/01 14:41:08;;;;;;;2.17;1.50;;;;;;;;;;5074577;28;20201;-68
2022/07/01 14:43:34;;;;;;;2.10;1.30;;;;;;;;;;5074460;28;20637;-68
2022/07/01 14:46:03;;;;;;;2.03;1.33;;;;;;;;;;5074739;28;20186;-68
2022/07/01 14:48:29;;;;;;;2.72;1.42;;;;;;;;;;5072670;28;20407;-67
2022/07/01 14:50:55;;;;;;;2.00;1.38;;;;;;;;;;5073277;28;20471;-68
2022/07/01 14:53:21;;;;;;;1.73;1.30;;;;;;;;;;5074449;28;20613;-69